Time,TemperatureC,DewpointC,PressurehPa,WindDirection,WindDirectionDegrees,WindSpeedKMH,WindSpeedGustKMH,Humidity,HourlyPrecipMM,Conditions,Clouds,dailyrainMM,SolarRadiationWatts/m^2,UVIndex,SoftwareType,DateUTC
2021-05-13 00:04:56,15.5,14,1012.8,East,84,0,1.6,91,0.0,,,0.0,0,0,n/a,2021-05-12T22:04:56Z
2021-05-13 00:09:58,15.5,14.1,1012.8,East,84,0,0,91,0.0,,,0.0,0,0,n/a,2021-05-12T22:09:58Z
2021-05-13 00:14:49,15.5,14.1,1012.7,East,84,0,0,91.5,0.0,,,0.0,0,0,n/a,2021-05-12T22:14:49Z
2021-05-13 00:19:54,15.5,14.2,1012.7,East,84,0,0,92,0.0,,,0.0,0,0,n/a,2021-05-12T22:19:54Z
2021-05-13 00:24:40,15.6,14.3,1012.7,East,84,0,0,92,0.0,,,0.0,0,0,n/a,2021-05-12T22:24:40Z
2021-05-13 00:29:46,15.6,14.3,1012.7,East,84,0,0,92,0.0,,,0.0,0,0,n/a,2021-05-12T22:29:46Z
2021-05-13 00:32:01,15.6,14.3,1012.7,East,84,0,0,92,0.0,,,0.0,0,0,n/a,2021-05-12T22:32:01Z
2021-05-13 01:50:02,15.6,14.3,1012.7,East,90,0,0,92,0.0,,,0.0,0,0,n/a,2021-05-12T23:50:02Z
2021-05-13 02:05:02,15.6,14.3,1012.6,East,90,0,0,92,0.0,,,0.0,0,0,n/a,2021-05-13T00:05:02Z
2021-05-13 02:40:02,15.5,14.2,1012.4,East,90,0,0,92,0.0,,,0.0,0,0,n/a,2021-05-13T00:40:02Z
2021-05-13 02:45:02,15.4,14.2,1012.5,East,90,0,4.8,92,0.0,,,0.0,0,0,n/a,2021-05-13T00:45:02Z
2021-05-13 02:55:02,15.4,14.2,1012.4,East,90,0,0,92,0.0,,,0.0,0,0,n/a,2021-05-13T00:55:02Z
2021-05-13 03:05:02,15.4,14.2,1012.4,East,90,0,0,92,0.0,,,0.0,0,0,n/a,2021-05-13T01:05:02Z
2021-05-13 03:14:46,15.3,13.7,1012.0,West,268,3.7,1.8,90,0.0,,,0.0,0,0,n/a,2021-05-13T01:14:46Z
2021-05-13 03:19:50,15.3,13.7,1012.0,West,270,4.7,2.4,90,0.0,,,0.0,0,0,n/a,2021-05-13T01:19:50Z
2021-05-13 03:24:40,15.3,13.7,1012.4,West,271,2.7,1.4,90.1,0.0,,,0.0,0,0,n/a,2021-05-13T01:24:40Z
2021-05-13 03:29:46,15.3,13.7,1012.3,NE,48,10.9,17.2,90.2,0.0,,,0.0,0,0,n/a,2021-05-13T01:29:46Z
2021-05-13 03:34:55,14.9,13.3,1012.0,NNE,24,8.4,25.7,90,0.0,,,0.0,0,0,n/a,2021-05-13T01:34:55Z
2021-05-13 03:39:59,14.8,13.2,1011.9,NNE,30,8.6,12.9,90,0.0,,,0.0,0,0,n/a,2021-05-13T01:39:59Z
2021-05-13 03:44:50,14.7,13.1,1012.0,NNE,24,8.3,11.3,90,0.0,,,0.0,0,0,n/a,2021-05-13T01:44:50Z
2021-05-13 03:49:57,14.6,13,1012.1,NNE,20,6.6,11.3,89.7,0.0,,,0.0,0,0,n/a,2021-05-13T01:49:57Z
2021-05-13 03:54:53,14.6,12.8,1012.1,NE,48,9.8,10.1,89,0.0,,,0.0,0,0,n/a,2021-05-13T01:54:53Z
2021-05-13 03:59:57,14.6,12.8,1012.1,NE,46,12,16.1,88.7,0.0,,,0.0,0,0,n/a,2021-05-13T01:59:57Z
2021-05-13 04:04:55,14.8,12.8,1012.1,NE,52,15.2,14.5,87.9,0.0,,,0.0,0,0,n/a,2021-05-13T02:04:55Z
2021-05-13 04:09:52,15.1,12.9,1012.1,ENE,60,19.7,19.3,86.9,0.0,,,0.0,0,0,n/a,2021-05-13T02:09:52Z
2021-05-13 04:14:55,15.3,13,1012.3,ENE,58,16.3,22.5,86,0.0,,,0.0,0,0,n/a,2021-05-13T02:14:55Z
2021-05-13 04:19:51,15.5,13,1012.3,ENE,73,15.6,16.1,85.3,0.0,,,0.0,0,0,n/a,2021-05-13T02:19:51Z
2021-05-13 04:24:40,15.5,13.1,1012.2,ENE,77,16.3,16.1,85.6,0.0,,,0.0,0,0,n/a,2021-05-13T02:24:40Z
2021-05-13 04:29:42,15.6,13.2,1012.2,East,83,16.9,19.3,86,0.0,,,0.0,0,0,n/a,2021-05-13T02:29:42Z
2021-05-13 04:34:58,15.5,13.2,1012.2,ENE,70,18.3,19.3,86.2,0.0,,,0.0,0,0,n/a,2021-05-13T02:34:58Z
2021-05-13 04:39:40,15.4,13.2,1012.3,ENE,66,22.1,24.1,87,0.0,,,0.0,0,0,n/a,2021-05-13T02:39:40Z
2021-05-13 04:44:44,15.2,13.1,1012.2,ENE,61,25.9,22.5,87.4,0.0,,,0.0,0,0,n/a,2021-05-13T02:44:44Z
2021-05-13 04:49:47,15,13,1012.2,ENE,57,28.8,32.2,87.9,0.0,,,0.0,0,0,n/a,2021-05-13T02:49:47Z
2021-05-13 04:54:51,14.8,12.8,1012.2,ENE,61,25.3,29,88,0.0,,,0.0,0,0,n/a,2021-05-13T02:54:51Z
2021-05-13 04:59:42,14.6,12.7,1012.1,NE,51,25.3,19.2,88,0.0,,,0.0,0,0,n/a,2021-05-13T02:59:42Z
2021-05-13 05:04:56,14.5,12.6,1012.2,NE,54,27.4,23.3,88,0.0,,,0.0,0,0,n/a,2021-05-13T03:04:56Z
2021-05-13 05:09:48,14.4,12.5,1012.2,NE,54,26.8,29,88,0.0,,,0.0,0,0,n/a,2021-05-13T03:09:48Z
2021-05-13 05:14:41,14.4,12.4,1012.2,ENE,57,26.2,20.8,88,0.0,,,0.0,0,0,n/a,2021-05-13T03:14:41Z
2021-05-13 05:19:39,14.3,12.4,1012.2,ENE,59,24.6,27.4,88,0.0,,,0.0,0,0,n/a,2021-05-13T03:19:39Z
2021-05-13 05:24:43,14.2,12.3,1012.1,NE,52,25.1,20.3,88,0.0,,,0.0,0,0,n/a,2021-05-13T03:24:43Z
2021-05-13 05:29:58,14.2,12.2,1012.2,ENE,61,26.3,21.2,88,0.0,,,0.0,0,0,n/a,2021-05-13T03:29:58Z
2021-05-13 05:34:49,14.2,12.2,1012.3,NE,55,26.8,22,88,0.0,,,0.0,0,0,n/a,2021-05-13T03:34:49Z
2021-05-13 05:39:54,14.2,12.2,1012.2,NE,51,26.1,29,88,0.0,,,0.0,0,0,n/a,2021-05-13T03:39:54Z
2021-05-13 05:44:45,14.2,12.2,1012.2,ENE,60,30,29,88,0.0,,,0.0,0,0,n/a,2021-05-13T03:44:45Z
2021-05-13 05:49:55,14.2,12.2,1012.2,ENE,59,25.4,32.2,88,0.0,,,0.0,0,0,n/a,2021-05-13T03:49:55Z
2021-05-13 05:54:43,14.2,12.2,1012.2,ENE,59,26.1,27.4,87.3,0.0,,,0.0,0,0,n/a,2021-05-13T03:54:43Z
2021-05-13 05:59:42,14.2,12.1,1012.2,NE,52,27.6,29,87,0.0,,,0.0,0,0,n/a,2021-05-13T03:59:42Z
2021-05-13 06:04:50,14.2,12.1,1012.2,NE,56,25.4,32.2,87,0.0,,,0.0,0,0,n/a,2021-05-13T04:04:50Z
2021-05-13 06:09:42,14.2,12.1,1012.2,ENE,66,25.4,25.7,87,0.0,,,0.0,0,0,n/a,2021-05-13T04:09:42Z
2021-05-13 06:14:51,14.2,12.1,1012.2,ENE,63,23.9,18.5,87,0.0,,,0.0,0,0,n/a,2021-05-13T04:14:51Z
2021-05-13 06:19:51,14.2,12.1,1012.2,ENE,65,21.3,29,87,0.0,,,0.0,0,0,n/a,2021-05-13T04:19:51Z
2021-05-13 06:24:43,14.2,12.1,1012.2,NE,47,22.5,24.1,87,0.0,,,0.0,0,0,n/a,2021-05-13T04:24:43Z
2021-05-13 06:29:43,14.2,12.1,1012.3,NE,53,23.2,18.3,87.2,0.0,,,0.0,0,0,n/a,2021-05-13T04:29:43Z
2021-05-13 06:34:47,14.2,12.2,1012.2,ENE,57,23.2,17.5,87.9,0.0,,,0.0,5,0,n/a,2021-05-13T04:34:47Z
2021-05-13 06:39:48,14.2,12.2,1012.4,ENE,67,19.8,15.6,88,0.0,,,0.0,5,0,n/a,2021-05-13T04:39:48Z
2021-05-13 06:44:40,14.1,12.2,1012.4,ENE,57,20.5,27.4,88,0.0,,,0.0,7,0,n/a,2021-05-13T04:44:40Z
2021-05-13 06:49:40,14.1,12.2,1012.4,ENE,59,21,15.9,88,0.0,,,0.0,9,0,n/a,2021-05-13T04:49:40Z
2021-05-13 06:54:52,14.1,12.1,1012.4,NE,56,20.7,24.1,88,0.0,,,0.0,14,0,n/a,2021-05-13T04:54:52Z
2021-05-13 06:59:55,14.1,12.1,1012.4,ENE,62,19.5,14.5,88,0.0,,,0.0,19,0,n/a,2021-05-13T04:59:55Z
2021-05-13 07:04:58,14.1,12.1,1012.4,ENE,63,18.2,22.5,88,0.0,,,0.0,25,0,n/a,2021-05-13T05:04:58Z
2021-05-13 07:09:59,14.1,12.1,1012.5,ENE,62,22.5,19.3,88,0.0,,,0.0,35,0,n/a,2021-05-13T05:09:59Z
2021-05-13 07:14:42,14.1,12.2,1012.5,NE,56,20,27.4,88,0.0,,,0.0,39,0,n/a,2021-05-13T05:14:42Z
2021-05-13 07:19:44,14.2,12.2,1012.5,ENE,63,18.8,13.8,88,0.0,,,0.0,46,0,n/a,2021-05-13T05:19:44Z
2021-05-13 07:24:57,14.2,12.3,1012.6,ENE,68,19.9,22.5,88,0.0,,,0.0,60,0,n/a,2021-05-13T05:24:57Z
2021-05-13 07:29:39,14.3,12.3,1012.7,ENE,68,18.8,14.5,88,0.0,,,0.0,67,0,n/a,2021-05-13T05:29:39Z
2021-05-13 07:34:56,14.3,12.4,1012.9,ENE,68,17.8,22.5,88,0.0,,,0.0,79,0,n/a,2021-05-13T05:34:56Z
2021-05-13 07:39:39,14.3,12.4,1012.9,ENE,59,17.2,13.7,88,0.0,,,0.0,83,0,n/a,2021-05-13T05:39:39Z
2021-05-13 07:44:42,14.4,12.5,1013.0,NE,53,17.4,13.8,88,0.0,,,0.0,118,0,n/a,2021-05-13T05:44:42Z
2021-05-13 07:49:45,14.5,12.4,1013.0,NE,54,18.8,20.9,87.1,0.0,,,0.0,118,0,n/a,2021-05-13T05:49:45Z
2021-05-13 07:54:37,14.6,12.4,1013.0,NE,56,18.3,14,87,0.0,,,0.0,128,0,n/a,2021-05-13T05:54:37Z
2021-05-13 07:59:41,14.7,12.5,1012.9,NE,51,17.2,15.6,87,0.0,,,0.0,174,0,n/a,2021-05-13T05:59:41Z
2021-05-13 08:04:39,14.8,12.7,1012.9,ENE,59,17.5,12.7,87,0.0,,,0.0,185,0,n/a,2021-05-13T06:04:39Z
2021-05-13 08:09:39,15,12.7,1012.9,ENE,72,16.9,13.5,86.6,0.0,,,0.0,204,0,n/a,2021-05-13T06:09:39Z
2021-05-13 08:14:40,15.1,12.8,1012.9,ENE,68,17.3,22.5,86,0.0,,,0.0,186,0,n/a,2021-05-13T06:14:40Z
2021-05-13 08:19:48,15.3,12.9,1013.0,ENE,68,14.9,10.6,85.6,0.0,,,0.0,185,0,n/a,2021-05-13T06:19:48Z
2021-05-13 08:24:53,15.4,12.9,1013.1,ENE,61,16.6,19.3,85,0.0,,,0.0,244,0,n/a,2021-05-13T06:24:53Z
2021-05-13 08:29:51,15.6,13,1013.1,ENE,67,15.7,12.6,84.9,0.0,,,0.0,250,0.5,n/a,2021-05-13T06:29:51Z
2021-05-13 08:34:51,15.7,13,1013.1,ENE,70,17.3,19.3,83.9,0.0,,,0.0,246,0.5,n/a,2021-05-13T06:34:51Z
2021-05-13 08:39:50,16,13.1,1013.2,ENE,75,15.5,11.7,83.2,0.0,,,0.0,248,0.6,n/a,2021-05-13T06:39:50Z
2021-05-13 08:44:57,16.1,13.1,1013.3,East,86,14.3,19.3,82.1,0.0,,,0.0,255,0.6,n/a,2021-05-13T06:44:57Z
2021-05-13 08:49:45,16.3,12.9,1013.3,East,96,12.7,12.9,80.6,0.0,,,0.0,255,0.7,n/a,2021-05-13T06:49:45Z
2021-05-13 08:54:46,16.4,12.8,1013.4,ESE,112,12.7,14.5,79.6,0.0,,,0.0,239,0.7,n/a,2021-05-13T06:54:46Z
2021-05-13 08:59:46,16.7,13.1,1013.4,ESE,111,10.5,12.9,79.2,0.0,,,0.0,221,0.8,n/a,2021-05-13T06:59:46Z
2021-05-13 09:04:49,17,13.2,1013.4,ESE,108,8.6,12.9,78.3,0.0,,,0.0,246,0.8,n/a,2021-05-13T07:04:49Z
2021-05-13 09:09:51,17.2,13.2,1013.4,ESE,119,10.1,10.8,77.3,0.0,,,0.0,285,0.9,n/a,2021-05-13T07:09:51Z
2021-05-13 09:14:40,17.3,13,1013.5,SE,130,11.5,14.5,76.1,0.0,,,0.0,329,1,n/a,2021-05-13T07:14:40Z
2021-05-13 09:19:50,17.3,13,1013.4,SE,133,8.1,12.9,76,0.0,,,0.0,367,1.1,n/a,2021-05-13T07:19:50Z
2021-05-13 09:24:51,17.4,13.1,1013.4,SE,132,5.8,11.3,75.7,0.0,,,0.0,401,1.2,n/a,2021-05-13T07:24:51Z
2021-05-13 09:29:55,17.7,13.2,1013.3,ESE,116,6.6,6.4,75.2,0.0,,,0.0,439,1.2,n/a,2021-05-13T07:29:55Z
2021-05-13 09:34:45,18.1,13.4,1013.3,SE,133,8.8,9.7,74.4,0.0,,,0.0,473,1.3,n/a,2021-05-13T07:34:45Z
2021-05-13 09:39:49,18.2,13.3,1013.4,SE,129,10,12.9,73,0.0,,,0.0,524,1.4,n/a,2021-05-13T07:39:49Z
2021-05-13 09:44:40,18.5,13.3,1013.3,SE,128,4.6,11.3,72,0.0,,,0.0,524,1.4,n/a,2021-05-13T07:44:40Z
2021-05-13 09:49:47,18.4,12.9,1013.5,SSE,157,7.1,8.2,70.3,0.0,,,0.0,589,1.5,n/a,2021-05-13T07:49:47Z
2021-05-13 09:54:51,18.1,12.5,1013.5,WSW,238,7.3,6.4,70,0.0,,,0.0,589,1.5,n/a,2021-05-13T07:54:51Z
2021-05-13 09:59:44,18.1,12.5,1013.5,SSW,206,1.9,11.3,70,0.0,,,0.0,552,1.6,n/a,2021-05-13T07:59:44Z
2021-05-13 10:04:41,18,12.3,1013.5,South,191,5.9,6.1,69.3,0.0,,,0.0,571,1.7,n/a,2021-05-13T08:04:41Z
2021-05-13 10:09:34,18.1,12.3,1013.5,SSW,194,2.4,9.7,69,0.0,,,0.0,601,1.9,n/a,2021-05-13T08:09:34Z
2021-05-13 10:14:40,18.5,12.6,1013.5,SSW,208,5,3.4,68.5,0.0,,,0.0,635,2,n/a,2021-05-13T08:14:40Z
2021-05-13 10:19:40,18.7,12.5,1013.4,WNW,301,4.1,8,67.1,0.0,,,0.0,671,2.1,n/a,2021-05-13T08:19:40Z
2021-05-13 10:24:50,19.2,12.4,1013.4,WSW,256,5.7,8.2,65.1,0.0,,,0.0,724,2.2,n/a,2021-05-13T08:24:50Z
2021-05-13 10:29:49,19.5,12.5,1013.4,SW,234,10.7,10.3,64,0.0,,,0.0,724,2.2,n/a,2021-05-13T08:29:49Z
2021-05-13 10:34:49,19.5,12.4,1013.4,West,259,10.6,12.9,63.6,0.0,,,0.0,160,1.3,n/a,2021-05-13T08:34:49Z
2021-05-13 10:39:41,19.2,12,1013.4,SW,223,6.7,14.5,63,0.0,,,0.0,666,2.3,n/a,2021-05-13T08:39:41Z
2021-05-13 10:44:45,19.2,11.6,1013.4,SW,228,7.9,9.7,61.7,0.0,,,0.0,689,2.5,n/a,2021-05-13T08:44:45Z
2021-05-13 10:49:45,19.3,11.5,1013.4,WSW,244,13.7,11.7,60.9,0.0,,,0.0,724,2.7,n/a,2021-05-13T08:49:45Z
2021-05-13 10:54:46,19.6,10.4,1013.3,West,267,15.2,19.3,55.6,0.0,,,0.0,724,2.8,n/a,2021-05-13T08:54:46Z
2021-05-13 10:59:46,20,9,1013.1,West,264,11.9,14.5,49.3,0.0,,,0.0,754,2.9,n/a,2021-05-13T08:59:46Z
2021-05-13 11:04:39,20.3,8.6,1013.1,WSW,247,14.4,16.1,46.8,0.0,,,0.0,780,3,n/a,2021-05-13T09:04:39Z
2021-05-13 11:09:53,20.4,8.4,1013.1,WSW,252,11.1,16.1,46.3,0.0,,,0.0,673,3,n/a,2021-05-13T09:09:53Z
2021-05-13 11:14:32,20.6,8.7,1013.1,West,270,13.3,14.5,46.5,0.0,,,0.0,584,2.6,n/a,2021-05-13T09:14:32Z
2021-05-13 11:19:47,20.7,8.6,1013.2,West,274,14.9,19.3,45.8,0.0,,,0.0,461,2.6,n/a,2021-05-13T09:19:47Z
2021-05-13 11:24:55,20.8,8.2,1013.2,West,275,13.8,19.3,44.3,0.0,,,0.0,772,3.3,n/a,2021-05-13T09:24:55Z
2021-05-13 11:29:55,21.1,7.7,1013.2,West,263,11.9,16.1,42.2,0.0,,,0.0,766,3.3,n/a,2021-05-13T09:29:55Z
2021-05-13 11:34:46,21.4,7.7,1013.2,WNW,284,14.2,19.3,41.3,0.0,,,0.0,782,3.5,n/a,2021-05-13T09:34:46Z
2021-05-13 11:39:59,21.6,7.7,1013.2,SW,235,16.6,14.5,40.7,0.0,,,0.0,795,3.5,n/a,2021-05-13T09:39:59Z
2021-05-13 11:44:39,21.6,7.4,1013.2,WSW,238,15.3,19.3,40,0.0,,,0.0,814,3.6,n/a,2021-05-13T09:44:39Z
2021-05-13 11:49:41,21.3,7.4,1013.1,West,277,9.5,19.3,40.7,0.0,,,0.0,814,3.6,n/a,2021-05-13T09:49:41Z
2021-05-13 11:54:41,21.4,7.8,1013.1,West,270,14.4,14.5,41.8,0.0,,,0.0,805,3.7,n/a,2021-05-13T09:54:41Z
2021-05-13 11:59:42,21.6,7.6,1013.0,WSW,251,20.8,19.3,40.3,0.0,,,0.0,821,3.8,n/a,2021-05-13T09:59:42Z
2021-05-13 12:04:43,21.5,7.4,1013.0,WSW,238,17.2,24.1,40.2,0.0,,,0.0,856,4,n/a,2021-05-13T10:04:43Z
2021-05-13 12:09:39,21.6,7.3,1012.9,SW,230,13.7,19.3,39.8,0.0,,,0.0,856,4,n/a,2021-05-13T10:09:39Z
2021-05-13 12:14:55,21.5,7.1,1012.8,WSW,244,16,13.5,39.2,0.0,,,0.0,856,4,n/a,2021-05-13T10:14:55Z
2021-05-13 12:19:58,21.5,6.8,1012.7,West,259,17.4,11.9,38.6,0.0,,,0.0,837,4.1,n/a,2021-05-13T10:19:58Z
2021-05-13 12:24:55,21.5,6.4,1012.7,WSW,254,16.6,22.5,37.6,0.0,,,0.0,837,4.1,n/a,2021-05-13T10:24:55Z
2021-05-13 12:29:39,21.4,6.1,1012.6,SSW,209,16.2,19.3,36.8,0.0,,,0.0,844,4.2,n/a,2021-05-13T10:29:39Z
2021-05-13 12:34:53,21.3,5.8,1012.5,SW,227,15.8,19.3,36.6,0.0,,,0.0,846,4.2,n/a,2021-05-13T10:34:53Z
2021-05-13 12:39:49,21.4,5.8,1012.5,WNW,296,12.9,22.5,36.3,0.0,,,0.0,851,4.3,n/a,2021-05-13T10:39:49Z
2021-05-13 12:44:49,21.8,6.5,1012.5,SW,235,15.8,17.1,37.1,0.0,,,0.0,858,4.4,n/a,2021-05-13T10:44:49Z
2021-05-13 12:49:52,22.1,6.1,1012.5,WSW,246,16.3,24.1,35.4,0.0,,,0.0,860,4.4,n/a,2021-05-13T10:49:52Z
2021-05-13 12:54:53,22.3,8.4,1012.4,SW,233,14,19.3,40.9,0.0,,,0.0,858,4.4,n/a,2021-05-13T10:54:53Z
2021-05-13 12:59:45,22.3,9.4,1012.4,SW,232,15,19.3,43.7,0.0,,,0.0,858,4.5,n/a,2021-05-13T10:59:45Z
2021-05-13 13:04:39,22.1,9.6,1012.3,SSW,201,23.5,22.9,45.1,0.0,,,0.0,861,4.5,n/a,2021-05-13T11:04:39Z
2021-05-13 13:09:42,21.7,10,1012.4,SSW,210,22.3,27.4,47.5,0.0,,,0.0,865,4.5,n/a,2021-05-13T11:09:42Z
2021-05-13 13:14:54,21.6,10.3,1012.3,SW,227,19.5,27.4,48.5,0.0,,,0.0,884,4.6,n/a,2021-05-13T11:14:54Z
2021-05-13 13:19:54,21.7,10.8,1012.3,SSW,211,21.7,24.1,50.1,0.0,,,0.0,911,4.7,n/a,2021-05-13T11:19:54Z
2021-05-13 13:24:44,21.5,10.6,1012.4,SW,219,22,27.4,50,0.0,,,0.0,911,4.7,n/a,2021-05-13T11:24:44Z
2021-05-13 13:29:44,21.2,10.6,1012.4,SW,226,21.2,27.4,50.7,0.0,,,0.0,940,4.8,n/a,2021-05-13T11:29:44Z
2021-05-13 13:34:44,21,10.5,1012.3,SW,219,21.5,24.1,51.3,0.0,,,0.0,940,4.8,n/a,2021-05-13T11:34:44Z
2021-05-13 13:39:28,20.9,10.7,1012.4,SW,223,25.4,25.7,52.1,0.0,,,0.0,905,4.8,n/a,2021-05-13T11:39:28Z
2021-05-13 13:44:54,20.8,10.6,1012.5,SW,219,21.1,32.2,52.3,0.0,,,0.0,909,4.8,n/a,2021-05-13T11:44:54Z
2021-05-13 13:49:36,20.8,10.9,1012.4,SW,225,23.5,25.7,52.9,0.0,,,0.0,926,4.8,n/a,2021-05-13T11:49:36Z
2021-05-13 13:54:39,21,11.3,1012.4,SSW,204,22.1,25.7,53.9,0.0,,,0.0,902,4.8,n/a,2021-05-13T11:54:39Z
2021-05-13 13:59:40,21,10.8,1012.3,SW,222,25.8,25.7,51.9,0.0,,,0.0,884,4.7,n/a,2021-05-13T11:59:40Z
2021-05-13 14:04:43,21.1,10.2,1012.4,SSW,212,22.3,29,49.8,0.0,,,0.0,875,4.7,n/a,2021-05-13T12:04:43Z
2021-05-13 14:09:55,21,10,1012.4,SW,214,19.5,27.4,49.4,0.0,,,0.0,872,4.7,n/a,2021-05-13T12:09:55Z
2021-05-13 14:14:55,20.9,9.5,1012.2,SW,222,21.8,22.5,48,0.0,,,0.0,891,4.8,n/a,2021-05-13T12:14:55Z
2021-05-13 14:19:43,20.8,9.4,1012.1,SW,216,25,25.7,48,0.0,,,0.0,898,4.7,n/a,2021-05-13T12:19:43Z
2021-05-13 14:24:52,21,9.4,1012.1,SW,219,25.5,32.2,47.4,0.0,,,0.0,888,4.7,n/a,2021-05-13T12:24:52Z
2021-05-13 14:29:53,21,9.2,1012.2,SSW,205,22.6,27.4,46.8,0.0,,,0.0,881,4.7,n/a,2021-05-13T12:29:53Z
2021-05-13 14:34:54,21,9.1,1012.1,SSW,207,18.2,25.7,46.4,0.0,,,0.0,889,4.7,n/a,2021-05-13T12:34:54Z
2021-05-13 14:39:48,21.3,9,1012.1,SSW,210,21.2,20.9,45.3,0.0,,,0.0,881,4.7,n/a,2021-05-13T12:39:48Z
2021-05-13 14:44:49,21.4,8.7,1012.1,SW,227,21.2,27.4,44.3,0.0,,,0.0,861,4.6,n/a,2021-05-13T12:44:49Z
2021-05-13 14:49:49,21.6,8.8,1012.2,SW,224,18.1,22.5,43.9,0.0,,,0.0,858,4.6,n/a,2021-05-13T12:49:49Z
2021-05-13 14:54:50,21.7,8.4,1012.2,SW,223,20.5,20.9,42.3,0.0,,,0.0,844,4.5,n/a,2021-05-13T12:54:50Z
2021-05-13 14:59:50,21.6,8.3,1012.2,SW,216,20.5,24.1,42.6,0.0,,,0.0,842,4.5,n/a,2021-05-13T12:59:50Z
2021-05-13 15:04:42,21.7,8.4,1012.2,SSW,204,19.5,25.7,42.5,0.0,,,0.0,830,4.4,n/a,2021-05-13T13:04:42Z
2021-05-13 15:09:53,21.8,8.3,1012.1,SW,219,22.5,29,42,0.0,,,0.0,849,4.4,n/a,2021-05-13T13:09:53Z
2021-05-13 15:14:39,21.5,8.2,1012.1,SSW,194,18.6,22.5,42.3,0.0,,,0.0,856,4.4,n/a,2021-05-13T13:14:39Z
2021-05-13 15:19:39,21.1,8.1,1012.1,SSW,204,17.1,24.1,43,0.0,,,0.0,846,4.3,n/a,2021-05-13T13:19:39Z
2021-05-13 15:24:40,21.4,8.4,1011.9,South,182,18.3,19.3,43.2,0.0,,,0.0,828,4.2,n/a,2021-05-13T13:24:40Z
2021-05-13 15:29:51,22,8.5,1011.9,SSW,200,19.4,20.9,42.1,0.0,,,0.0,856,4.2,n/a,2021-05-13T13:29:51Z
2021-05-13 15:34:42,22.3,9,1011.9,SSW,205,20.3,22.5,42.7,0.0,,,0.0,937,4.1,n/a,2021-05-13T13:34:42Z
2021-05-13 15:39:32,22.3,9.3,1011.9,SW,225,16.9,25.7,43.7,0.0,,,0.0,216,4,n/a,2021-05-13T13:39:32Z
2021-05-13 15:44:40,21.9,9,1011.9,SW,228,18.9,19.3,43.8,0.0,,,0.0,861,4,n/a,2021-05-13T13:44:40Z
2021-05-13 15:49:40,21.8,9,1011.7,WSW,239,16.4,24.1,44.1,0.0,,,0.0,802,3.9,n/a,2021-05-13T13:49:40Z
2021-05-13 15:54:41,22.4,8.9,1011.7,WSW,250,12.5,20.9,42.2,0.0,,,0.0,786,3.8,n/a,2021-05-13T13:54:41Z
2021-05-13 15:59:50,23.1,8.1,1011.7,WNW,282,15.7,16.1,38.2,0.0,,,0.0,752,3.7,n/a,2021-05-13T13:59:50Z
2021-05-13 16:04:45,23.3,7.5,1011.8,WNW,288,18.5,27.4,36.2,0.0,,,0.0,737,3.6,n/a,2021-05-13T14:04:45Z
2021-05-13 16:09:50,23.3,7.3,1011.8,West,278,19,19.3,35.8,0.0,,,0.0,729,3.5,n/a,2021-05-13T14:09:50Z
2021-05-13 16:14:51,23.3,7.5,1011.8,West,276,16.1,22.5,36.3,0.0,,,0.0,719,3.4,n/a,2021-05-13T14:14:51Z
2021-05-13 16:19:58,23.4,7.6,1011.8,West,270,18,19.3,36.4,0.0,,,0.0,714,3.3,n/a,2021-05-13T14:19:58Z
2021-05-13 16:24:58,23.3,7.6,1011.8,NNW,327,15,24.1,36.6,0.0,,,0.0,714,3.3,n/a,2021-05-13T14:24:58Z
2021-05-13 16:29:59,23.5,7.8,1011.6,WNW,293,18.3,16.1,36.7,0.0,,,0.0,691,3.2,n/a,2021-05-13T14:29:59Z
2021-05-13 16:34:53,23.5,7.7,1011.6,WSW,237,16.4,22.5,36.4,0.0,,,0.0,679,3.1,n/a,2021-05-13T14:34:53Z
2021-05-13 16:39:55,23.1,7.4,1011.5,WSW,253,17.6,19.3,36.4,0.0,,,0.0,661,3,n/a,2021-05-13T14:39:55Z
2021-05-13 16:44:56,22.7,7.3,1011.5,WSW,254,15.8,24.1,37,0.0,,,0.0,657,2.9,n/a,2021-05-13T14:44:56Z
2021-05-13 16:49:36,22.9,7.7,1011.4,WSW,247,17.7,16.1,37.9,0.0,,,0.0,657,2.8,n/a,2021-05-13T14:49:36Z
2021-05-13 16:54:48,23.1,8.6,1011.4,WSW,253,16.5,22.5,39.5,0.0,,,0.0,624,2.7,n/a,2021-05-13T14:54:48Z
2021-05-13 16:59:58,23.4,8.7,1011.5,WSW,243,20.8,20.9,39.1,0.0,,,0.0,608,2.6,n/a,2021-05-13T14:59:58Z
2021-05-13 17:04:39,22.9,8.6,1011.4,SW,230,23.8,27.4,39.9,0.0,,,0.0,594,2.5,n/a,2021-05-13T15:04:39Z
2021-05-13 17:09:32,22.3,8.1,1011.4,WSW,247,23.9,27.4,40,0.0,,,0.0,580,2.4,n/a,2021-05-13T15:09:32Z
2021-05-13 17:14:50,21.9,7.9,1011.3,SW,230,24.4,25.7,40.6,0.0,,,0.0,568,2.2,n/a,2021-05-13T15:14:50Z
2021-05-13 17:19:49,21.6,7.9,1011.3,SW,226,26.2,32.2,41.1,0.0,,,0.0,554,2.1,n/a,2021-05-13T15:19:49Z
2021-05-13 17:24:50,21.4,7.8,1011.3,SW,232,25.1,32.2,41.6,0.0,,,0.0,543,1.9,n/a,2021-05-13T15:24:50Z
2021-05-13 17:29:56,21.2,7.7,1011.3,SW,230,28,32.2,41.9,0.0,,,0.0,531,1.8,n/a,2021-05-13T15:29:56Z
2021-05-13 17:34:50,20.9,7.7,1011.3,SW,230,29.5,32.2,42.4,0.0,,,0.0,517,1.7,n/a,2021-05-13T15:34:50Z
2021-05-13 17:39:52,20.9,7.8,1011.2,SW,222,27.6,32.2,42.9,0.0,,,0.0,508,1.6,n/a,2021-05-13T15:39:52Z
2021-05-13 17:44:32,21,7.7,1011.1,SW,225,26.6,32.2,42.3,0.0,,,0.0,497,1.6,n/a,2021-05-13T15:44:32Z
2021-05-13 17:49:44,21.1,7.7,1011.1,SW,231,22.8,27.4,42,0.0,,,0.0,492,1.6,n/a,2021-05-13T15:49:44Z
2021-05-13 17:54:59,21.1,7.7,1011.1,SW,236,25.6,29,42,0.0,,,0.0,462,1.5,n/a,2021-05-13T15:54:59Z
2021-05-13 17:59:59,21,7.7,1011.2,SW,223,26.1,27.4,42.3,0.0,,,0.0,476,1.5,n/a,2021-05-13T15:59:59Z
2021-05-13 18:04:43,20.9,7.8,1011.1,SW,231,27.6,27.4,42.9,0.0,,,0.0,475,1.4,n/a,2021-05-13T16:04:43Z
2021-05-13 18:09:45,20.8,7.5,1011.0,SW,219,30.5,33.8,42.1,0.0,,,0.0,439,1.4,n/a,2021-05-13T16:09:45Z
2021-05-13 18:14:48,20.5,7.3,1010.8,SW,225,31,33.8,42.3,0.0,,,0.0,408,1.2,n/a,2021-05-13T16:14:48Z
2021-05-13 18:19:55,20.3,7.2,1010.8,SW,231,25.9,33.8,42.9,0.0,,,0.0,408,1.2,n/a,2021-05-13T16:19:55Z
2021-05-13 18:24:55,20.3,7.2,1010.7,SW,223,22.4,29,42.9,0.0,,,0.0,380,1.1,n/a,2021-05-13T16:24:55Z
2021-05-13 18:29:56,20.2,7,1010.7,SW,222,26.7,32.2,42.4,0.0,,,0.0,359,1.1,n/a,2021-05-13T16:29:56Z
2021-05-13 18:34:56,20.1,6.8,1010.6,SW,218,24.7,29,42.2,0.0,,,0.0,343,1,n/a,2021-05-13T16:34:56Z
2021-05-13 18:39:45,19.9,6.9,1010.6,SW,226,23.6,25.7,42.8,0.0,,,0.0,325,0.9,n/a,2021-05-13T16:39:45Z
2021-05-13 18:44:45,19.8,6.9,1010.6,SW,221,26.5,27.4,43,0.0,,,0.0,311,0.9,n/a,2021-05-13T16:44:45Z
2021-05-13 18:49:55,19.7,6.8,1010.7,SW,229,22.2,29,43.1,0.0,,,0.0,299,0.8,n/a,2021-05-13T16:49:55Z
2021-05-13 18:54:56,19.7,6.7,1010.6,SW,230,22.9,25.7,43.1,0.0,,,0.0,281,0.7,n/a,2021-05-13T16:54:56Z
2021-05-13 18:59:43,19.6,7.1,1010.6,SSW,211,17.7,25.7,44.3,0.0,,,0.0,271,0.7,n/a,2021-05-13T16:59:43Z
2021-05-13 19:04:54,19.5,7.2,1010.6,SW,220,19.6,22.5,44.8,0.0,,,0.0,255,0.6,n/a,2021-05-13T17:04:54Z
2021-05-13 19:09:56,19.4,7.1,1010.5,SW,220,18.9,22.5,44.8,0.0,,,0.0,241,0.6,n/a,2021-05-13T17:09:56Z
2021-05-13 19:14:57,19.3,7.1,1010.5,SW,221,17.8,20.9,45,0.0,,,0.0,227,0.5,n/a,2021-05-13T17:14:57Z
2021-05-13 19:19:58,19.2,7.3,1010.5,SW,226,19.6,20.9,45.8,0.0,,,0.0,211,0,n/a,2021-05-13T17:19:58Z
2021-05-13 19:24:58,19,6.9,1010.4,SW,225,19.9,22.5,45.2,0.0,,,0.0,195,0,n/a,2021-05-13T17:24:58Z
2021-05-13 19:29:45,18.9,7.1,1010.5,SW,228,20,24.1,46.1,0.0,,,0.0,179,0,n/a,2021-05-13T17:29:45Z
2021-05-13 19:34:39,18.8,7.2,1010.4,SW,228,20.3,24.1,46.9,0.0,,,0.0,165,0,n/a,2021-05-13T17:34:39Z
2021-05-13 19:39:55,18.6,7.2,1010.4,SW,226,16.3,24.1,47.3,0.0,,,0.0,146,0,n/a,2021-05-13T17:39:55Z
2021-05-13 19:44:42,18.6,7,1010.4,SW,222,18.4,19.3,47,0.0,,,0.0,130,0,n/a,2021-05-13T17:44:42Z
2021-05-13 19:49:43,18.5,6.8,1010.5,SW,221,17.1,22.5,46.6,0.0,,,0.0,113,0,n/a,2021-05-13T17:49:43Z
2021-05-13 19:54:56,18.3,6.9,1010.6,SW,229,19.7,22.5,47.3,0.0,,,0.0,42,0,n/a,2021-05-13T17:54:56Z
2021-05-13 19:59:48,18.1,7.6,1010.6,SW,223,18.9,22.5,50.4,0.0,,,0.0,26,0,n/a,2021-05-13T17:59:48Z
2021-05-13 20:04:58,17.7,8.3,1010.6,SW,220,17.9,22.5,54.1,0.0,,,0.0,25,0,n/a,2021-05-13T18:04:58Z
2021-05-13 20:09:29,17.5,8.8,1010.7,SW,227,15.3,20.9,56.8,0.0,,,0.0,30,0,n/a,2021-05-13T18:09:29Z
2021-05-13 20:14:40,17.3,8.7,1010.7,SW,227,16.3,19.3,57,0.0,,,0.0,37,0,n/a,2021-05-13T18:14:40Z
2021-05-13 20:19:40,17.1,8.8,1010.8,SW,217,10,20.9,58,0.0,,,0.0,40,0,n/a,2021-05-13T18:19:40Z
2021-05-13 20:24:34,17,9.2,1010.8,SW,227,11.1,11.3,59.8,0.0,,,0.0,40,0,n/a,2021-05-13T18:24:34Z
2021-05-13 20:29:51,17,9.6,1010.8,SW,223,11.5,16.1,61.7,0.0,,,0.0,30,0,n/a,2021-05-13T18:29:51Z
2021-05-13 20:34:57,16.9,9.8,1010.8,SW,224,8.1,12.9,63.2,0.0,,,0.0,21,0,n/a,2021-05-13T18:34:57Z
2021-05-13 20:39:39,16.8,10,1010.8,SW,217,10.2,10.5,64.1,0.0,,,0.0,18,0,n/a,2021-05-13T18:39:39Z
2021-05-13 20:44:39,16.7,10.1,1010.8,SW,217,8.4,14.5,65.1,0.0,,,0.0,14,0,n/a,2021-05-13T18:44:39Z
2021-05-13 20:49:40,16.6,10.3,1010.8,SW,219,7.7,9.7,66.1,0.0,,,0.0,11,0,n/a,2021-05-13T18:49:40Z
2021-05-13 20:54:40,16.5,10.4,1010.9,SW,222,7,9.7,67,0.0,,,0.0,7,0,n/a,2021-05-13T18:54:40Z
2021-05-13 20:59:43,16.5,10.4,1010.9,SW,217,5.5,9.7,67.6,0.0,,,0.0,5,0,n/a,2021-05-13T18:59:43Z
2021-05-13 21:04:54,16.4,10.4,1011.0,SW,230,5.1,6.4,68.1,0.0,,,0.0,0,0,n/a,2021-05-13T19:04:54Z
2021-05-13 21:09:56,16.3,10.6,1010.9,SW,236,5.9,8,68.9,0.0,,,0.0,0,0,n/a,2021-05-13T19:09:56Z
2021-05-13 21:14:52,16.2,10.5,1010.9,SW,235,6.6,8,69,0.0,,,0.0,0,0,n/a,2021-05-13T19:14:52Z
2021-05-13 21:19:52,16.1,10.5,1010.8,WSW,237,7,8,69.4,0.0,,,0.0,0,0,n/a,2021-05-13T19:19:52Z
2021-05-13 21:24:52,16,10.6,1010.8,WSW,244,7.3,11.3,70,0.0,,,0.0,0,0,n/a,2021-05-13T19:24:52Z
2021-05-13 21:29:44,15.9,10.5,1010.8,WSW,243,6.3,8,70,0.0,,,0.0,0,0,n/a,2021-05-13T19:29:44Z
2021-05-13 21:34:44,15.9,10.5,1010.8,WSW,246,4.2,8,70.8,0.0,,,0.0,0,0,n/a,2021-05-13T19:34:44Z
2021-05-13 21:39:48,15.8,10.6,1010.8,WSW,241,3.8,4.8,71,0.0,,,0.0,0,0,n/a,2021-05-13T19:39:48Z
2021-05-13 21:44:48,15.8,10.6,1010.8,WSW,246,3.8,4.8,71,0.0,,,0.0,0,0,n/a,2021-05-13T19:44:48Z